createdAt,value
2017-02-22T00:00:06.971Z,93.32
2017-02-22T00:01:07.667Z,94.18
2017-02-22T00:02:08.369Z,93.7
2017-02-22T00:03:09.056Z,93.79
2017-02-22T00:04:09.748Z,94.27
2017-02-22T00:05:10.438Z,93.89
2017-02-22T00:06:11.139Z,94.27
2017-02-22T00:07:11.837Z,94.18
2017-02-22T00:08:12.537Z,93.99
2017-02-22T00:09:13.272Z,94.46
2017-02-22T00:10:13.967Z,93.99
2017-02-22T00:11:14.664Z,94.27
2017-02-22T00:12:15.352Z,94.27
2017-02-22T00:13:16.053Z,94.56
2017-02-22T00:14:16.761Z,94.65
2017-02-22T00:15:17.470Z,95.22
2017-02-22T00:16:18.175Z,95.7
2017-02-22T00:17:18.856Z,95.79
2017-02-22T00:18:19.546Z,95.7
2017-02-22T00:19:20.254Z,96.17
2017-02-22T00:20:20.972Z,96.17
2017-02-22T00:21:21.693Z,96.55
2017-02-22T00:22:22.392Z,96.74
2017-02-22T00:23:23.090Z,97.41
2017-02-22T00:24:23.807Z,97.78
2017-02-22T00:25:24.559Z,97.5
2017-02-22T00:26:25.254Z,98.74
2017-02-22T00:27:25.962Z,99.02
2017-02-22T00:28:26.659Z,98.83
2017-02-22T00:29:27.379Z,99.99
2017-02-22T00:30:28.099Z,99.99
2017-02-22T00:31:28.820Z,99.99
2017-02-22T00:32:29.512Z,99.99
2017-02-22T00:33:30.238Z,99.99
2017-02-22T00:34:30.942Z,99.99
2017-02-22T00:35:31.647Z,99.99
2017-02-22T00:36:32.409Z,99.99
2017-02-22T00:37:33.119Z,99.99
2017-02-22T00:38:33.810Z,99.99
2017-02-22T00:39:34.507Z,99.99
2017-02-22T00:40:35.199Z,99.99
2017-02-22T00:41:35.926Z,99.99
2017-02-22T00:42:36.626Z,99.99
2017-02-22T00:43:37.351Z,99.99
2017-02-22T00:44:38.057Z,99.99
2017-02-22T00:45:38.768Z,99.99
2017-02-22T00:46:39.463Z,99.99
2017-02-22T00:47:40.159Z,99.99
2017-02-22T00:48:40.859Z,99.99
2017-02-22T00:49:41.571Z,99.99
2017-02-22T00:50:42.265Z,99.99
2017-02-22T00:51:42.970Z,99.99
2017-02-22T00:52:43.667Z,99.99
2017-02-22T00:53:44.366Z,99.99
2017-02-22T00:54:45.056Z,99.99
2017-02-22T00:55:45.770Z,99.99
2017-02-22T00:56:46.467Z,99.99
2017-02-22T00:57:47.159Z,99.99
2017-02-22T00:58:47.862Z,99.99
2017-02-22T00:59:48.568Z,99.99
2017-02-22T01:00:49.257Z,99.99
2017-02-22T01:01:49.966Z,99.99
2017-02-22T01:02:50.672Z,99.99
2017-02-22T01:03:51.366Z,99.99
2017-02-22T01:04:52.069Z,99.99
2017-02-22T01:05:52.760Z,99.99
2017-02-22T01:06:53.470Z,99.99
2017-02-22T01:07:54.174Z,99.99
2017-02-22T01:08:54.907Z,99.99
2017-02-22T01:09:55.585Z,99.99
2017-02-22T01:10:56.287Z,99.99
2017-02-22T01:11:56.962Z,99.99
2017-02-22T01:12:57.671Z,99.99
2017-02-22T01:13:58.352Z,99.99
2017-02-22T01:14:59.049Z,99.99
2017-02-22T01:15:59.754Z,99.99
2017-02-22T01:17:00.483Z,99.99
2017-02-22T01:18:01.181Z,99.99
2017-02-22T01:19:01.894Z,99.99
2017-02-22T01:20:02.600Z,99.99
2017-02-22T01:21:03.294Z,99.99
2017-02-22T01:22:03.988Z,99.99
2017-02-22T01:23:04.691Z,99.99
2017-02-22T01:24:05.374Z,99.99
2017-02-22T01:25:06.068Z,99.99
2017-02-22T01:26:06.761Z,99.99
2017-02-22T01:27:07.478Z,99.99
2017-02-22T01:28:08.171Z,99.99
2017-02-22T01:29:08.870Z,99.99
2017-02-22T01:30:09.580Z,99.99
2017-02-22T01:31:10.267Z,99.99
2017-02-22T01:32:10.951Z,99.99
2017-02-22T01:33:11.622Z,99.99
2017-02-22T01:34:12.298Z,99.99
2017-02-22T01:35:12.993Z,99.99
2017-02-22T01:36:13.713Z,99.99
2017-02-22T01:37:14.418Z,99.99
2017-02-22T01:38:15.130Z,99.99
2017-02-22T01:39:15.810Z,99.99
2017-02-22T01:40:16.517Z,99.99
2017-02-22T01:41:17.198Z,99.99
2017-02-22T01:42:17.880Z,99.99
2017-02-22T01:43:18.581Z,99.99
2017-02-22T01:44:19.256Z,99.99
2017-02-22T01:45:19.973Z,99.99
2017-02-22T01:46:20.673Z,99.99
2017-02-22T01:47:21.379Z,99.99
2017-02-22T01:48:22.061Z,99.99
2017-02-22T01:49:22.731Z,99.99
2017-02-22T01:50:23.409Z,99.99
2017-02-22T01:51:24.100Z,99.99
2017-02-22T01:52:24.786Z,99.99
2017-02-22T01:53:25.485Z,99.99
2017-02-22T01:54:26.216Z,99.99
2017-02-22T01:55:26.921Z,99.99
2017-02-22T01:56:27.605Z,99.99
2017-02-22T01:57:28.292Z,99.99
2017-02-22T01:58:29.016Z,99.99
2017-02-22T01:59:29.712Z,99.99
2017-02-22T02:00:30.407Z,99.99
2017-02-22T02:01:31.106Z,99.99
2017-02-22T02:02:31.796Z,99.99
2017-02-22T02:03:32.486Z,99.99
2017-02-22T02:04:33.185Z,99.99
2017-02-22T02:05:40.529Z,99.99
2017-02-22T02:06:41.232Z,99.99
2017-02-22T02:07:41.924Z,99.99
2017-02-22T02:08:42.626Z,99.99
2017-02-22T02:09:43.295Z,99.99
2017-02-22T02:10:43.997Z,99.99
2017-02-22T02:11:44.694Z,99.99
2017-02-22T02:12:45.392Z,99.99
2017-02-22T02:13:46.099Z,99.99
2017-02-22T02:14:46.783Z,99.99
2017-02-22T02:15:47.474Z,99.99
2017-02-22T02:16:48.176Z,99.99
2017-02-22T02:17:48.908Z,99.99
2017-02-22T02:18:49.595Z,99.99
2017-02-22T02:19:50.296Z,99.99
2017-02-22T02:20:50.987Z,99.99
2017-02-22T02:21:51.682Z,99.99
2017-02-22T02:22:52.388Z,99.99
2017-02-22T02:23:53.073Z,99.99
2017-02-22T02:24:53.793Z,99.99
2017-02-22T02:25:54.498Z,99.99
2017-02-22T02:26:55.191Z,99.99
2017-02-22T02:27:55.862Z,99.99
2017-02-22T02:28:56.540Z,99.99
2017-02-22T02:29:57.277Z,99.99
2017-02-22T02:30:57.962Z,99.99
2017-02-22T02:31:58.675Z,99.99
2017-02-22T02:32:59.378Z,99.99
2017-02-22T02:34:00.083Z,99.99
2017-02-22T02:35:00.808Z,99.99
2017-02-22T02:36:01.516Z,99.99
2017-02-22T02:37:02.219Z,99.99
2017-02-22T02:38:02.903Z,99.99
2017-02-22T02:39:03.640Z,99.99
2017-02-22T02:40:04.321Z,99.99
2017-02-22T02:41:05.023Z,99.99
2017-02-22T02:42:05.721Z,99.99
2017-02-22T02:43:06.439Z,99.99
2017-02-22T02:44:07.137Z,99.99
2017-02-22T02:45:07.838Z,99.99
2017-02-22T02:46:08.536Z,99.99
2017-02-22T02:47:09.247Z,99.99
2017-02-22T02:48:09.921Z,99.99
2017-02-22T02:49:10.621Z,99.99
2017-02-22T02:50:11.306Z,99.99
2017-02-22T02:51:12.023Z,99.99
2017-02-22T02:52:12.731Z,99.99
2017-02-22T02:53:13.422Z,99.99
2017-02-22T02:54:14.097Z,99.99
2017-02-22T02:55:14.806Z,99.99
2017-02-22T02:56:15.496Z,99.99
2017-02-22T02:57:16.225Z,99.99
2017-02-22T02:58:16.913Z,99.99
2017-02-22T02:59:17.606Z,99.99
2017-02-22T03:00:18.294Z,99.99
2017-02-22T03:01:18.998Z,99.99
2017-02-22T03:02:19.684Z,99.99
2017-02-22T03:03:20.384Z,99.99
2017-02-22T03:04:21.086Z,99.99
2017-02-22T03:05:21.786Z,99.99
2017-02-22T03:06:22.523Z,99.99
2017-02-22T03:07:23.222Z,99.99
2017-02-22T03:08:23.927Z,99.99
2017-02-22T03:09:24.635Z,99.99
2017-02-22T03:10:25.325Z,99.99
2017-02-22T03:11:26.015Z,99.99
2017-02-22T03:12:26.738Z,99.99
2017-02-22T03:13:27.466Z,99.99
2017-02-22T03:14:28.145Z,99.99
2017-02-22T03:15:28.846Z,99.99
2017-02-22T03:16:29.551Z,99.99
2017-02-22T03:17:30.232Z,99.99
2017-02-22T03:18:30.947Z,99.99
2017-02-22T03:19:31.650Z,99.99
2017-02-22T03:20:32.336Z,99.99
2017-02-22T03:21:33.013Z,99.99
2017-02-22T03:22:33.698Z,99.99
2017-02-22T03:23:34.386Z,99.99
2017-02-22T03:24:35.107Z,99.99
2017-02-22T03:25:35.779Z,99.99
2017-02-22T03:26:36.481Z,99.99
2017-02-22T03:27:37.184Z,99.99
2017-02-22T03:28:37.898Z,99.99
2017-02-22T03:29:38.600Z,99.99
2017-02-22T03:30:39.309Z,99.99
2017-02-22T03:31:40.002Z,99.99
2017-02-22T03:32:40.702Z,99.99
2017-02-22T03:33:41.415Z,99.99
2017-02-22T03:34:42.093Z,99.99
2017-02-22T03:35:42.812Z,99.99
2017-02-22T03:36:43.506Z,99.99
2017-02-22T03:37:44.179Z,99.99
2017-02-22T03:38:44.911Z,99.99
2017-02-22T03:39:45.620Z,99.99
2017-02-22T03:40:46.314Z,99.99
2017-02-22T03:41:47.021Z,99.99
2017-02-22T03:42:47.714Z,99.99
2017-02-22T03:43:48.410Z,99.99
2017-02-22T03:44:49.117Z,99.99
2017-02-22T03:45:49.814Z,99.99
2017-02-22T03:46:50.508Z,99.99
2017-02-22T03:47:51.202Z,99.99
2017-02-22T03:48:51.878Z,99.99
2017-02-22T03:49:52.547Z,99.99
2017-02-22T03:50:53.258Z,99.99
2017-02-22T03:51:53.957Z,99.99
2017-02-22T03:52:54.655Z,99.99
2017-02-22T03:53:55.349Z,99.99
2017-02-22T03:54:56.050Z,99.99
2017-02-22T03:55:56.730Z,99.99
2017-02-22T03:56:57.415Z,99.99
2017-02-22T03:57:58.115Z,99.99
2017-02-22T03:58:58.812Z,99.99
2017-02-22T03:59:59.488Z,99.99
2017-02-22T04:01:00.195Z,99.99
2017-02-22T04:02:00.885Z,99.99
2017-02-22T04:03:01.573Z,99.99
2017-02-22T04:04:02.252Z,99.99
2017-02-22T04:05:02.973Z,99.99
2017-02-22T04:06:03.672Z,99.99
2017-02-22T04:07:04.383Z,99.99
2017-02-22T04:08:05.061Z,99.99
2017-02-22T04:09:05.760Z,99.99
2017-02-22T04:10:06.470Z,99.99
2017-02-22T04:11:07.182Z,99.99
2017-02-22T04:12:07.863Z,99.99
2017-02-22T04:13:08.566Z,99.99
2017-02-22T04:14:09.262Z,99.99
2017-02-22T04:15:09.957Z,99.99
2017-02-22T04:16:10.656Z,99.99
2017-02-22T04:17:11.332Z,99.99
2017-02-22T04:18:12.021Z,99.99
2017-02-22T04:19:12.725Z,99.99
2017-02-22T04:20:13.406Z,99.99
2017-02-22T04:21:14.071Z,99.99
2017-02-22T04:22:14.788Z,99.99
2017-02-22T04:23:15.479Z,99.99
2017-02-22T04:24:16.165Z,99.99
2017-02-22T04:25:16.846Z,99.99
2017-02-22T04:26:17.578Z,99.99
2017-02-22T04:27:18.272Z,99.99
2017-02-22T04:28:18.985Z,99.99
2017-02-22T04:29:19.699Z,99.99
2017-02-22T04:30:20.419Z,99.99
2017-02-22T04:31:21.143Z,99.99
2017-02-22T04:32:21.847Z,99.99
2017-02-22T04:33:22.531Z,99.99
2017-02-22T04:34:23.211Z,99.99
2017-02-22T04:35:23.899Z,99.99
2017-02-22T04:36:24.606Z,99.99
2017-02-22T04:37:25.299Z,99.99
2017-02-22T04:38:26.001Z,99.99
2017-02-22T04:39:26.690Z,99.99
2017-02-22T04:40:27.375Z,99.99
2017-02-22T04:41:28.071Z,99.99
2017-02-22T04:42:28.744Z,99.99
2017-02-22T04:43:29.443Z,99.99
2017-02-22T04:44:30.126Z,99.99
2017-02-22T04:45:30.810Z,99.99
2017-02-22T04:46:31.510Z,99.99
2017-02-22T04:47:32.206Z,99.99
2017-02-22T04:48:32.898Z,99.99
2017-02-22T04:49:33.577Z,99.99
2017-02-22T04:50:34.282Z,99.99
2017-02-22T04:51:34.996Z,99.99
2017-02-22T04:52:35.672Z,99.99
2017-02-22T04:53:36.367Z,99.99
2017-02-22T04:54:37.173Z,99.99
2017-02-22T04:55:38.333Z,99.99
2017-02-22T04:56:39.045Z,99.99
2017-02-22T04:57:40.264Z,99.99
2017-02-22T04:58:42.284Z,99.99
2017-02-22T04:59:42.970Z,99.99
2017-02-22T05:00:43.666Z,99.99
2017-02-22T05:01:44.350Z,99.99
2017-02-22T05:02:45.095Z,99.99
2017-02-22T05:03:45.775Z,99.99
2017-02-22T05:04:46.498Z,99.99
2017-02-22T05:05:47.200Z,99.99
2017-02-22T05:06:47.898Z,99.99
2017-02-22T05:07:49.590Z,99.99
2017-02-22T05:08:50.311Z,99.99
2017-02-22T05:09:51.611Z,99.99
2017-02-22T05:10:53.049Z,99.99
2017-02-22T05:11:53.735Z,99.99
2017-02-22T05:12:54.436Z,99.99
2017-02-22T05:13:55.117Z,99.99
2017-02-22T05:14:55.808Z,99.99
2017-02-22T05:15:56.510Z,99.99
2017-02-22T05:16:57.222Z,99.99
2017-02-22T05:17:57.927Z,99.99
2017-02-22T05:18:58.648Z,99.99
2017-02-22T05:20:00.285Z,99.99
2017-02-22T05:21:02.049Z,99.99
2017-02-22T05:22:02.760Z,99.99
2017-02-22T05:23:03.467Z,99.99
2017-02-22T05:24:04.158Z,99.99
2017-02-22T05:25:04.874Z,99.99
2017-02-22T05:26:05.604Z,99.99
2017-02-22T05:27:06.281Z,99.99
2017-02-22T05:28:06.998Z,99.99
2017-02-22T05:29:07.672Z,99.99
2017-02-22T05:30:08.386Z,99.99
2017-02-22T05:31:09.989Z,99.99
2017-02-22T05:32:11.426Z,99.99
2017-02-22T05:33:12.151Z,99.99
2017-02-22T05:34:12.892Z,99.99
2017-02-22T05:35:13.574Z,99.99
2017-02-22T05:36:16.373Z,99.99
2017-02-22T05:37:17.194Z,99.99
2017-02-22T05:38:17.879Z,99.99
2017-02-22T05:39:18.611Z,99.99
2017-02-22T05:40:19.308Z,99.99
2017-02-22T05:41:19.995Z,99.99
2017-02-22T05:42:20.718Z,99.99
2017-02-22T05:43:21.429Z,99.99
2017-02-22T05:44:22.126Z,99.99
2017-02-22T05:45:22.901Z,99.99
2017-02-22T05:46:23.609Z,99.99
2017-02-22T05:47:24.341Z,99.99
2017-02-22T05:48:25.143Z,99.99
2017-02-22T05:49:26.297Z,99.99
2017-02-22T05:50:27.013Z,99.99
2017-02-22T05:51:27.713Z,99.99
2017-02-22T05:52:28.413Z,99.99
2017-02-22T05:53:29.124Z,99.99
2017-02-22T05:54:29.823Z,99.99
2017-02-22T05:55:30.509Z,99.99
2017-02-22T05:56:31.200Z,99.99
2017-02-22T05:57:31.909Z,99.99
2017-02-22T05:58:32.615Z,99.99
2017-02-22T05:59:33.352Z,99.99
2017-02-22T06:00:34.056Z,99.99
2017-02-22T06:01:34.767Z,99.99
2017-02-22T06:02:35.520Z,99.99
2017-02-22T06:03:36.223Z,99.99
2017-02-22T06:04:36.936Z,99.99
2017-02-22T06:05:37.625Z,99.99
2017-02-22T06:06:38.334Z,99.99
2017-02-22T06:07:39.047Z,99.99
2017-02-22T06:08:39.767Z,99.99
2017-02-22T06:09:40.480Z,99.99
2017-02-22T06:10:41.181Z,99.99
2017-02-22T06:11:41.880Z,99.99
2017-02-22T06:12:42.574Z,99.99
2017-02-22T06:13:43.283Z,99.99
2017-02-22T06:14:43.986Z,99.99
2017-02-22T06:15:44.690Z,99.99
2017-02-22T06:16:45.403Z,99.99
2017-02-22T06:17:46.207Z,99.99
2017-02-22T06:18:47.184Z,99.99
2017-02-22T06:19:48.151Z,99.99
2017-02-22T06:20:49.045Z,99.99
2017-02-22T06:21:49.758Z,99.99
2017-02-22T06:22:50.437Z,99.99
2017-02-22T06:23:51.129Z,99.99
2017-02-22T06:24:51.838Z,99.99
2017-02-22T06:25:52.563Z,99.99
2017-02-22T06:26:53.267Z,99.99
2017-02-22T06:27:53.990Z,99.99
2017-02-22T06:28:54.686Z,99.99
2017-02-22T06:29:55.366Z,99.99
2017-02-22T06:30:56.068Z,99.99
2017-02-22T06:31:56.761Z,99.99
2017-02-22T06:32:57.472Z,99.99
2017-02-22T06:33:58.182Z,99.99
2017-02-22T06:34:58.878Z,99.99
2017-02-22T06:35:59.576Z,99.99
2017-02-22T06:37:00.271Z,99.99
2017-02-22T06:38:00.974Z,99.99
2017-02-22T06:39:01.693Z,99.99
2017-02-22T06:40:02.405Z,99.99
2017-02-22T06:41:03.111Z,99.99
2017-02-22T06:42:03.816Z,99.99
2017-02-22T06:43:04.513Z,99.99
2017-02-22T06:44:05.213Z,99.99
2017-02-22T06:45:05.943Z,99.99
2017-02-22T06:46:06.628Z,99.99
2017-02-22T06:47:07.307Z,99.99
2017-02-22T06:48:07.990Z,99.99
2017-02-22T06:49:08.692Z,99.99
2017-02-22T06:50:09.379Z,99.99
2017-02-22T06:51:10.077Z,99.99
2017-02-22T06:52:10.781Z,99.99
2017-02-22T06:53:11.516Z,99.99
2017-02-22T06:54:12.290Z,99.99
2017-02-22T06:55:12.988Z,99.99
2017-02-22T06:56:13.702Z,99.99
2017-02-22T06:57:14.399Z,99.99
2017-02-22T06:58:15.113Z,99.99
2017-02-22T06:59:15.816Z,99.99
2017-02-22T07:00:16.568Z,99.99
2017-02-22T07:01:17.284Z,99.99
2017-02-22T07:02:17.988Z,99.99
2017-02-22T07:03:18.709Z,99.99
2017-02-22T07:04:19.408Z,99.99
2017-02-22T07:05:20.119Z,99.99
2017-02-22T07:06:20.831Z,99.99
2017-02-22T07:07:21.565Z,99.99
2017-02-22T07:08:22.324Z,99.99
2017-02-22T07:09:23.059Z,99.99
2017-02-22T07:10:23.772Z,99.99
2017-02-22T07:11:24.510Z,99.99
2017-02-22T07:12:25.258Z,99.99
2017-02-22T07:13:25.939Z,99.99
2017-02-22T07:14:26.654Z,99.99
2017-02-22T07:15:27.427Z,99.99
2017-02-22T07:16:28.112Z,99.99
2017-02-22T07:17:28.820Z,99.99
2017-02-22T07:18:29.545Z,99.99
2017-02-22T07:19:30.274Z,99.99
2017-02-22T07:20:31.006Z,99.99
2017-02-22T07:21:31.797Z,99.99
2017-02-22T07:22:32.516Z,99.99
2017-02-22T07:23:33.241Z,99.99
2017-02-22T07:24:33.963Z,99.99
2017-02-22T07:25:34.700Z,99.99
2017-02-22T07:26:35.415Z,99.99
2017-02-22T07:27:36.117Z,99.99
2017-02-22T07:28:36.812Z,99.99
2017-02-22T07:29:37.566Z,99.99
2017-02-22T07:30:38.313Z,99.99
2017-02-22T07:31:39.062Z,99.99
2017-02-22T07:32:39.754Z,99.99
2017-02-22T07:33:40.448Z,99.99
2017-02-22T07:34:41.194Z,99.99
2017-02-22T07:35:41.882Z,99.99
2017-02-22T07:36:42.580Z,99.99
2017-02-22T07:37:43.316Z,99.99
2017-02-22T07:38:44.024Z,99.99
2017-02-22T07:39:44.791Z,99.99
2017-02-22T07:40:45.483Z,99.99
2017-02-22T07:41:46.266Z,99.99
2017-02-22T07:42:47.125Z,99.99
2017-02-22T07:43:47.858Z,99.99
2017-02-22T07:44:48.556Z,99.99
2017-02-22T07:45:49.266Z,99.99
2017-02-22T07:46:49.984Z,99.99
2017-02-22T07:47:50.725Z,99.99
2017-02-22T07:48:51.421Z,99.99
2017-02-22T07:49:52.144Z,99.99
2017-02-22T07:50:52.839Z,99.99
2017-02-22T07:51:53.579Z,99.99
2017-02-22T07:52:54.351Z,99.99
2017-02-22T07:53:55.126Z,99.99
2017-02-22T07:54:55.811Z,99.99
2017-02-22T07:55:56.552Z,99.99
2017-02-22T07:56:57.258Z,99.99
2017-02-22T07:57:57.979Z,99.99
2017-02-22T07:58:58.695Z,99.99
2017-02-22T07:59:59.409Z,99.99
2017-02-22T08:01:00.146Z,99.99
2017-02-22T08:02:00.849Z,99.99
2017-02-22T08:03:01.555Z,99.99
2017-02-22T08:04:02.279Z,99.99
2017-02-22T08:05:02.992Z,99.99
2017-02-22T08:06:03.700Z,99.99
2017-02-22T08:07:04.402Z,99.99
2017-02-22T08:08:05.108Z,99.99
2017-02-22T08:09:05.820Z,99.99
2017-02-22T08:10:06.597Z,99.99
2017-02-22T08:11:07.282Z,99.99
2017-02-22T08:12:07.996Z,99.99
2017-02-22T08:13:08.694Z,99.99
2017-02-22T08:14:09.421Z,99.99
2017-02-22T08:15:10.110Z,99.99
2017-02-22T08:16:10.820Z,99.99
2017-02-22T08:17:11.515Z,99.99
2017-02-22T08:18:12.233Z,99.99
2017-02-22T08:19:12.949Z,99.99
2017-02-22T08:20:13.686Z,99.99
2017-02-22T08:21:14.382Z,99.99
2017-02-22T08:22:15.087Z,99.99
2017-02-22T08:23:15.799Z,99.99
2017-02-22T08:24:16.502Z,99.99
2017-02-22T08:25:17.216Z,99.99
2017-02-22T08:26:17.931Z,99.99
2017-02-22T08:27:18.632Z,99.99
2017-02-22T08:28:19.332Z,99.99
2017-02-22T08:29:20.040Z,99.99
2017-02-22T08:30:20.801Z,99.99
2017-02-22T08:31:21.593Z,99.99
2017-02-22T08:32:22.316Z,99.99
2017-02-22T08:33:23.097Z,99.99
2017-02-22T08:34:23.839Z,99.99
2017-02-22T08:35:24.552Z,99.99
2017-02-22T08:36:25.286Z,99.99
2017-02-22T08:37:25.988Z,99.99
2017-02-22T08:38:26.704Z,99.99
2017-02-22T08:39:27.399Z,99.99
2017-02-22T08:40:28.132Z,99.99
2017-02-22T08:41:28.871Z,99.99
2017-02-22T08:42:29.576Z,99.99
2017-02-22T08:43:30.312Z,99.99
2017-02-22T08:44:31.009Z,99.99
2017-02-22T08:45:31.737Z,99.99
2017-02-22T08:46:32.419Z,99.99
2017-02-22T08:47:33.134Z,99.99
2017-02-22T08:48:33.814Z,99.99
2017-02-22T08:49:34.507Z,99.99
2017-02-22T08:50:35.314Z,99.99
2017-02-22T08:51:36.126Z,99.99
2017-02-22T08:52:36.882Z,99.99
2017-02-22T08:53:37.601Z,99.99
2017-02-22T08:54:38.319Z,99.99
2017-02-22T08:55:39.272Z,99.99
2017-02-22T08:56:40.050Z,99.99
2017-02-22T08:57:40.981Z,99.99
2017-02-22T08:58:41.748Z,99.99
2017-02-22T08:59:42.480Z,99.99
2017-02-22T09:00:43.280Z,99.99
2017-02-22T09:01:44.057Z,99.99
2017-02-22T09:02:44.809Z,99.99
2017-02-22T09:03:45.533Z,99.99
2017-02-22T09:04:46.315Z,99.99
2017-02-22T09:05:46.996Z,99.99
2017-02-22T09:06:47.716Z,99.99
2017-02-22T09:07:48.455Z,99.99
2017-02-22T09:08:49.202Z,99.99
2017-02-22T09:09:49.873Z,99.99
2017-02-22T09:10:50.570Z,99.99
2017-02-22T09:11:51.370Z,99.99
2017-02-22T09:12:52.160Z,99.99
2017-02-22T09:13:52.836Z,99.99
2017-02-22T09:14:53.557Z,99.99
2017-02-22T09:15:54.257Z,99.99
2017-02-22T09:16:54.950Z,99.99
2017-02-22T09:17:55.649Z,99.99
2017-02-22T09:18:56.359Z,99.99
2017-02-22T09:19:57.089Z,99.99
2017-02-22T09:20:57.785Z,99.99
2017-02-22T09:21:58.497Z,99.99
2017-02-22T09:22:59.201Z,99.99
2017-02-22T09:23:59.911Z,99.99
2017-02-22T09:25:00.623Z,99.99
2017-02-22T09:26:01.347Z,99.99
2017-02-22T09:27:02.047Z,99.99
2017-02-22T09:28:02.763Z,99.99
2017-02-22T09:29:03.465Z,99.99
2017-02-22T09:30:04.195Z,99.99
2017-02-22T09:31:04.898Z,99.99
2017-02-22T09:32:05.580Z,99.99
2017-02-22T09:33:06.363Z,99.99
2017-02-22T09:34:07.112Z,99.99
2017-02-22T09:35:07.811Z,99.99
2017-02-22T09:36:08.508Z,99.99
2017-02-22T09:37:09.217Z,99.99
2017-02-22T09:38:09.942Z,99.99
2017-02-22T09:39:10.671Z,99.99
2017-02-22T09:40:11.384Z,99.99
2017-02-22T09:41:12.098Z,99.99
2017-02-22T09:42:12.817Z,99.99
2017-02-22T09:43:13.538Z,99.99
2017-02-22T09:44:14.262Z,99.99
2017-02-22T09:45:14.984Z,99.99
2017-02-22T09:46:15.695Z,99.99
2017-02-22T09:47:16.386Z,99.99
2017-02-22T09:48:17.108Z,99.99
2017-02-22T09:49:17.773Z,99.99
2017-02-22T09:50:18.508Z,99.99
2017-02-22T09:51:19.229Z,99.99
2017-02-22T09:52:19.950Z,99.99
2017-02-22T09:53:20.637Z,99.99
2017-02-22T09:54:21.339Z,99.99
2017-02-22T09:55:22.081Z,99.99
2017-02-22T09:56:22.818Z,99.99
2017-02-22T09:57:23.536Z,99.99
2017-02-22T09:58:24.229Z,99.99
2017-02-22T09:59:24.956Z,99.99
2017-02-22T10:00:25.676Z,99.99
2017-02-22T10:01:26.390Z,99.99
2017-02-22T10:02:27.085Z,99.99
2017-02-22T10:03:27.794Z,99.99
2017-02-22T10:04:28.520Z,99.99
2017-02-22T10:05:29.274Z,99.99
2017-02-22T10:06:29.963Z,99.99
2017-02-22T10:07:30.667Z,99.99
2017-02-22T10:08:31.355Z,99.99
2017-02-22T10:09:32.086Z,99.99
2017-02-22T10:10:32.787Z,99.99
2017-02-22T10:11:33.508Z,99.99
2017-02-22T10:12:34.215Z,99.99
2017-02-22T10:13:34.926Z,99.99
2017-02-22T10:14:35.631Z,99.99
2017-02-22T10:15:36.373Z,99.99
2017-02-22T10:16:37.175Z,99.99
2017-02-22T10:17:37.878Z,99.99
2017-02-22T10:18:38.624Z,99.99
2017-02-22T10:19:39.343Z,99.99
2017-02-22T10:20:40.019Z,99.99
2017-02-22T10:21:40.740Z,99.99
2017-02-22T10:22:41.480Z,99.99
2017-02-22T10:23:42.162Z,99.99
2017-02-22T10:24:42.902Z,99.99
2017-02-22T10:25:43.666Z,99.99
2017-02-22T10:26:44.373Z,99.99
2017-02-22T10:27:45.106Z,99.99
2017-02-22T10:28:45.967Z,99.99
2017-02-22T10:29:46.665Z,99.99
2017-02-22T10:30:47.379Z,99.99
2017-02-22T10:31:48.096Z,99.99
2017-02-22T10:32:48.820Z,99.99
2017-02-22T10:33:49.635Z,99.99
2017-02-22T10:34:50.364Z,99.99
2017-02-22T10:35:51.051Z,99.99
2017-02-22T10:36:51.755Z,99.99
2017-02-22T10:37:52.506Z,99.99
2017-02-22T10:38:53.192Z,99.99
2017-02-22T10:39:53.978Z,99.99
2017-02-22T10:40:54.723Z,99.99
2017-02-22T10:41:55.425Z,99.99
2017-02-22T10:42:56.165Z,99.99
2017-02-22T10:43:56.977Z,99.99
2017-02-22T10:44:57.672Z,99.99
2017-02-22T10:45:58.522Z,99.99
2017-02-22T10:46:59.255Z,99.99
2017-02-22T10:48:00.017Z,99.99
2017-02-22T10:49:00.754Z,99.99
2017-02-22T10:50:01.463Z,99.99
2017-02-22T10:51:02.214Z,99.99
2017-02-22T10:52:02.911Z,99.99
2017-02-22T10:53:03.715Z,99.99
2017-02-22T10:54:04.430Z,99.99
2017-02-22T10:55:05.136Z,99.99
2017-02-22T10:56:05.843Z,99.99
2017-02-22T10:57:06.556Z,99.99
2017-02-22T10:58:07.278Z,99.99
2017-02-22T10:59:08.010Z,99.99
2017-02-22T11:00:08.710Z,99.99
2017-02-22T11:01:09.445Z,99.99
2017-02-22T11:02:10.156Z,99.93
2017-02-22T11:03:10.867Z,99.08
2017-02-22T11:04:11.669Z,99.55
2017-02-22T11:05:12.377Z,98.98
2017-02-22T11:06:13.139Z,97.93
2017-02-22T11:07:13.972Z,97.55
2017-02-22T11:08:14.706Z,97.84
2017-02-22T11:09:15.442Z,98.22
2017-02-22T11:10:16.178Z,97.55
2017-02-22T11:11:16.923Z,97.46
2017-02-22T11:12:17.768Z,96.31
2017-02-22T11:13:18.514Z,97.65
2017-02-22T11:14:19.274Z,96.31
2017-02-22T11:15:20.008Z,96.31
2017-02-22T11:16:20.703Z,96.22
2017-02-22T11:17:21.506Z,94.6
2017-02-22T11:18:22.365Z,93.84
2017-02-22T11:19:23.074Z,93.37
2017-02-22T11:20:23.799Z,93.46
2017-02-22T11:21:24.608Z,93.65
2017-02-22T11:22:25.288Z,93.55
2017-02-22T11:23:25.989Z,93.65
2017-02-22T11:24:26.700Z,94.42
2017-02-22T11:25:27.471Z,93.94
2017-02-22T11:26:28.199Z,94.13
2017-02-22T11:27:28.871Z,93.18
2017-02-22T11:28:29.604Z,93.65
2017-02-22T11:29:30.322Z,92.79
2017-02-22T11:30:31.015Z,92.99
2017-02-22T11:31:31.730Z,91.84
2017-02-22T11:32:32.439Z,90.99
2017-02-22T11:33:33.151Z,90.7
2017-02-22T11:34:33.844Z,90.89
2017-02-22T11:35:34.563Z,89.37
2017-02-22T11:36:35.284Z,89.84
2017-02-22T11:37:35.975Z,90.89
2017-02-22T11:38:36.684Z,90.32
2017-02-22T11:39:37.408Z,90.89
2017-02-22T11:40:38.215Z,89.65
2017-02-22T11:41:38.948Z,89.47
2017-02-22T11:42:39.767Z,88.89
2017-02-22T11:43:40.520Z,89.75
2017-02-22T11:44:41.336Z,89.94
2017-02-22T11:45:42.097Z,90.32
2017-02-22T11:46:42.962Z,89.94
2017-02-22T11:47:43.801Z,90.51
2017-02-22T11:48:44.744Z,91.75
2017-02-22T11:49:45.610Z,91.17
2017-02-22T11:50:46.404Z,90.99
2017-02-22T11:51:47.155Z,91.75
2017-02-22T11:52:47.844Z,91.27
2017-02-22T11:53:48.548Z,90.61
2017-02-22T11:54:49.264Z,90.32
2017-02-22T11:55:50.004Z,89.84
2017-02-22T11:56:50.719Z,89.56
2017-02-22T11:57:51.462Z,89.75
2017-02-22T11:58:52.188Z,88.04
2017-02-22T11:59:52.940Z,88.04
2017-02-22T12:00:53.653Z,89.08
2017-02-22T12:01:54.377Z,88.42
2017-02-22T12:02:55.085Z,88.04
2017-02-22T12:03:55.782Z,87.65
2017-02-22T12:04:56.488Z,87.85
2017-02-22T12:05:57.215Z,86.61
2017-02-22T12:06:57.935Z,86.7
2017-02-22T12:07:58.676Z,87.27
2017-02-22T12:08:59.363Z,86.8
2017-02-22T12:10:00.072Z,87.18
2017-02-22T12:11:00.770Z,87.94
2017-02-22T12:12:01.469Z,88.04
2017-02-22T12:13:02.172Z,86.7
2017-02-22T12:14:02.903Z,87.75
2017-02-22T12:15:03.607Z,87.37
2017-02-22T12:16:04.399Z,86.13
2017-02-22T12:17:05.128Z,86.32
2017-02-22T12:18:05.890Z,86.04
2017-02-22T12:19:06.660Z,85.75
2017-02-22T12:20:07.376Z,85.18
2017-02-22T12:21:08.102Z,84.8
2017-02-22T12:22:08.862Z,83.85
2017-02-22T12:23:09.563Z,84.13
2017-02-22T12:24:10.297Z,83.56
2017-02-22T12:25:10.998Z,84.23
2017-02-22T12:26:11.723Z,84.13
2017-02-22T12:27:12.445Z,83.37
2017-02-22T12:28:13.162Z,83.09
2017-02-22T12:29:13.843Z,84.33
2017-02-22T12:30:14.530Z,84.42
2017-02-22T12:31:15.255Z,84.52
2017-02-22T12:32:15.942Z,84.13
2017-02-22T12:33:16.630Z,84.33
2017-02-22T12:34:17.343Z,83.94
2017-02-22T12:35:18.060Z,82.61
2017-02-22T12:36:18.784Z,82.42
2017-02-22T12:37:19.477Z,83.28
2017-02-22T12:38:20.200Z,82.99
2017-02-22T12:39:20.889Z,83.47
2017-02-22T12:40:21.578Z,82.99
2017-02-22T12:41:22.290Z,83.75
2017-02-22T12:42:22.972Z,83.18
2017-02-22T12:43:23.696Z,83.18
2017-02-22T12:44:24.421Z,82.99
2017-02-22T12:45:25.130Z,82.42
2017-02-22T12:46:25.851Z,82.09
2017-02-22T12:47:26.536Z,82.28
2017-02-22T12:48:27.242Z,81.24
2017-02-22T12:49:27.932Z,81.81
2017-02-22T12:50:28.614Z,81.81
2017-02-22T12:51:29.354Z,82.67
2017-02-22T12:52:30.077Z,82.38
2017-02-22T12:53:30.804Z,82.38
2017-02-22T12:54:31.540Z,82.86
2017-02-22T12:55:32.298Z,83.04
2017-02-22T12:56:33.027Z,82.04
2017-02-22T12:57:33.742Z,81.33
2017-02-22T12:58:34.434Z,81.76
2017-02-22T12:59:35.177Z,80.95
2017-02-22T13:00:35.889Z,81.05
2017-02-22T13:01:36.612Z,80.86
2017-02-22T13:02:37.301Z,82.19